createdAt,value
2019-05-17T00:01:43.976Z,100433.19
2019-05-17T00:04:10.240Z,100427.71
2019-05-17T00:06:36.941Z,100422.20
2019-05-17T00:09:06.980Z,100422.20
2019-05-17T00:11:33.567Z,100419.04
2019-05-17T00:13:59.759Z,100418.17
2019-05-17T00:16:26.823Z,100413.91
2019-05-17T00:18:53.377Z,100413.77
2019-05-17T00:21:19.497Z,100406.05
2019-05-17T00:23:46.990Z,100400.10
2019-05-17T00:26:13.373Z,100402.07
2019-05-17T00:28:39.854Z,100402.00
2019-05-17T00:31:06.700Z,100394.28
2019-05-17T00:33:33.154Z,100391.50
2019-05-17T00:35:59.446Z,100392.10
2019-05-17T00:38:27.376Z,100387.86
2019-05-17T00:40:56.349Z,100388.23
2019-05-17T00:43:22.142Z,100387.42
2019-05-17T00:45:48.341Z,100381.66
2019-05-17T00:48:16.943Z,100369.33
2019-05-17T00:50:42.913Z,100369.33
2019-05-17T00:53:09.265Z,100366.41
2019-05-17T00:55:36.293Z,100371.93
2019-05-17T00:58:02.867Z,100368.29
2019-05-17T01:00:29.233Z,100364.21
2019-05-17T01:02:57.379Z,100365.20
2019-05-17T01:05:23.745Z,100367.83
2019-05-17T01:07:50.201Z,100358.02
2019-05-17T01:10:16.930Z,100359.61
2019-05-17T01:12:43.165Z,100350.70
2019-05-17T01:15:10.059Z,100355.27
2019-05-17T01:17:36.747Z,100350.22
2019-05-17T01:20:06.958Z,100351.07
2019-05-17T01:22:33.451Z,100341.41
2019-05-17T01:24:59.537Z,100341.41
2019-05-17T01:27:26.393Z,100332.33
2019-05-17T01:29:52.592Z,100334.63
2019-05-17T01:32:18.735Z,100336.33
2019-05-17T01:34:46.931Z,100334.83
2019-05-17T01:37:13.381Z,100328.81
2019-05-17T01:39:39.697Z,100327.89
2019-05-17T01:42:06.768Z,100327.33
2019-05-17T01:44:33.113Z,100327.45
2019-05-17T01:46:59.290Z,100318.41
2019-05-17T01:49:27.091Z,100322.44
2019-05-17T01:51:53.476Z,100322.81
2019-05-17T01:54:19.638Z,100326.34
2019-05-17T01:56:46.294Z,100326.35
2019-05-17T01:59:12.630Z,100329.73
2019-05-17T02:01:39.350Z,100323.63
2019-05-17T02:04:06.797Z,100324.93
2019-05-17T02:06:33.127Z,100315.77
2019-05-17T02:08:59.223Z,100323.23
2019-05-17T02:11:26.926Z,100314.22
2019-05-17T02:13:53.434Z,100317.61
2019-05-17T02:16:19.767Z,100314.28
2019-05-17T02:18:46.564Z,100310.77
2019-05-17T02:21:12.982Z,100309.95
2019-05-17T02:23:39.193Z,100309.03
2019-05-17T02:26:06.612Z,100308.97
2019-05-17T02:28:34.396Z,100310.50
2019-05-17T02:31:03.394Z,100306.44
2019-05-17T02:33:29.343Z,100309.03
2019-05-17T02:35:55.459Z,100306.30
2019-05-17T02:38:22.453Z,100304.74
2019-05-17T02:40:48.707Z,100303.58
2019-05-17T02:43:14.864Z,100297.08
2019-05-17T02:45:43.552Z,100292.57
2019-05-17T02:48:09.218Z,100286.93
2019-05-17T02:50:35.578Z,100289.09
2019-05-17T02:53:04.386Z,100294.84
2019-05-17T02:55:32.478Z,100285.88
2019-05-17T02:58:02.515Z,100283.22
2019-05-17T03:00:27.127Z,100289.78
2019-05-17T03:02:53.759Z,100290.84
2019-05-17T03:05:22.990Z,100288.48
2019-05-17T03:07:48.557Z,100288.11
2019-05-17T03:10:23.609Z,100287.98
2019-05-17T03:12:44.375Z,100281.44
2019-05-17T03:15:13.010Z,100290.09
2019-05-17T03:17:42.939Z,100290.89
2019-05-17T03:20:08.004Z,100288.24
2019-05-17T03:22:34.363Z,100287.56
2019-05-17T03:25:03.614Z,100284.04
2019-05-17T03:27:33.497Z,100286.95
2019-05-17T03:29:58.143Z,100283.64
2019-05-17T03:32:26.368Z,100280.23
2019-05-17T03:34:55.998Z,100278.33
2019-05-17T03:37:25.863Z,100278.33
2019-05-17T03:39:53.401Z,100272.27
2019-05-17T03:42:18.624Z,100273.95
2019-05-17T03:44:45.020Z,100267.37
2019-05-17T03:47:13.099Z,100265.45
2019-05-17T03:49:39.906Z,100268.98
2019-05-17T03:52:06.222Z,100265.47
2019-05-17T03:54:32.659Z,100266.90
2019-05-17T03:56:58.999Z,100267.69
2019-05-17T03:59:25.353Z,100269.37
2019-05-17T04:01:52.701Z,100258.84
2019-05-17T04:04:22.659Z,100253.95
2019-05-17T04:06:47.351Z,100256.98
2019-05-17T04:09:14.235Z,100252.65
2019-05-17T04:11:42.908Z,100256.55
2019-05-17T04:14:08.820Z,100255.69
2019-05-17T04:16:35.187Z,100258.84
2019-05-17T04:19:03.078Z,100252.58
2019-05-17T04:21:29.751Z,100260.14
2019-05-17T04:23:55.860Z,100252.72
2019-05-17T04:26:23.172Z,100256.05
2019-05-17T04:28:52.942Z,100256.98
2019-05-17T04:31:17.767Z,100261.88
2019-05-17T04:33:43.981Z,100263.23
2019-05-17T04:36:13.038Z,100259.03
2019-05-17T04:38:38.347Z,100262.56
2019-05-17T04:41:04.629Z,100256.84
2019-05-17T04:43:33.345Z,100254.76
2019-05-17T04:46:02.731Z,100250.81
2019-05-17T04:48:28.155Z,100252.09
2019-05-17T04:50:54.449Z,100251.30
2019-05-17T04:53:23.378Z,100248.33
2019-05-17T04:55:49.042Z,100257.30
2019-05-17T04:58:15.505Z,100250.35
2019-05-17T05:00:42.995Z,100246.11
2019-05-17T05:03:12.468Z,100244.72
2019-05-17T05:05:37.791Z,100244.97
2019-05-17T05:08:04.099Z,100243.55
2019-05-17T05:10:32.936Z,100242.56
2019-05-17T05:12:58.676Z,100240.39
2019-05-17T05:15:43.716Z,100235.73
2019-05-17T05:18:09.383Z,100240.12
2019-05-17T05:20:35.789Z,100242.18
2019-05-17T05:23:02.791Z,100245.64
2019-05-17T05:25:29.056Z,100244.27
2019-05-17T05:27:55.282Z,100245.65
2019-05-17T05:30:22.530Z,100233.94
2019-05-17T05:32:48.990Z,100240.63
2019-05-17T05:35:15.345Z,100235.85
2019-05-17T05:37:42.582Z,100236.45
2019-05-17T05:40:09.387Z,100230.44
2019-05-17T05:42:35.720Z,100234.28
2019-05-17T05:45:03.117Z,100231.36
2019-05-17T05:47:29.569Z,100230.44
2019-05-17T05:49:55.820Z,100228.70
2019-05-17T05:52:22.002Z,100228.60
2019-05-17T05:54:48.148Z,100231.19
2019-05-17T05:57:14.545Z,100230.87
2019-05-17T05:59:42.648Z,100233.25
2019-05-17T06:02:08.800Z,100226.16
2019-05-17T06:04:35.052Z,100232.33
2019-05-17T06:07:02.943Z,100231.20
2019-05-17T06:09:31.880Z,100236.09
2019-05-17T06:11:58.427Z,100227.72
2019-05-17T06:14:24.640Z,100230.38
2019-05-17T06:16:51.997Z,100226.16
2019-05-17T06:19:18.431Z,100216.00
2019-05-17T06:21:45.630Z,100223.17
2019-05-17T06:24:12.069Z,100222.95
2019-05-17T06:26:38.278Z,100216.11
2019-05-17T06:29:04.713Z,100213.23
2019-05-17T06:31:33.135Z,100218.34
2019-05-17T06:33:58.989Z,100221.32
2019-05-17T06:36:25.105Z,100218.99
2019-05-17T06:38:52.719Z,100220.30
2019-05-17T06:41:21.560Z,100223.48
2019-05-17T06:43:47.891Z,100227.11
2019-05-17T06:46:14.207Z,100222.97
2019-05-17T06:48:42.397Z,100225.62
2019-05-17T06:51:08.724Z,100222.47
2019-05-17T06:53:35.016Z,100224.47
2019-05-17T06:56:02.738Z,100214.44
2019-05-17T06:58:31.375Z,100212.75
2019-05-17T07:00:57.137Z,100214.23
2019-05-17T07:03:23.263Z,100218.97
2019-05-17T07:05:51.303Z,100218.64
2019-05-17T07:08:17.433Z,100217.33
2019-05-17T07:10:44.689Z,100206.19
2019-05-17T07:13:11.031Z,100210.14
2019-05-17T07:15:44.750Z,100203.48
2019-05-17T07:18:05.750Z,100201.91
2019-05-17T07:20:32.058Z,100204.44
2019-05-17T07:23:00.417Z,100204.52
2019-05-17T07:25:26.428Z,100201.91
2019-05-17T07:27:53.880Z,100207.04
2019-05-17T07:30:20.938Z,100195.45
2019-05-17T07:32:49.606Z,100195.45
2019-05-17T07:35:15.731Z,100197.27
2019-05-17T07:37:42.009Z,100187.12
2019-05-17T07:40:10.830Z,100195.84
2019-05-17T07:42:39.468Z,100191.80
2019-05-17T07:45:05.976Z,100194.19
2019-05-17T07:47:32.181Z,100185.29
2019-05-17T07:50:00.942Z,100180.61
2019-05-17T07:52:26.368Z,100183.20
2019-05-17T07:54:53.595Z,100181.12
2019-05-17T07:57:20.735Z,100174.33
2019-05-17T07:59:50.631Z,100169.27
2019-05-17T08:02:16.107Z,100170.05
2019-05-17T08:04:42.322Z,100165.73
2019-05-17T08:07:10.713Z,100155.58
2019-05-17T08:09:36.878Z,100166.02
2019-05-17T08:12:03.230Z,100162.26
2019-05-17T08:14:31.092Z,100163.56
2019-05-17T08:16:59.802Z,100154.19
2019-05-17T08:19:25.782Z,100152.52
2019-05-17T08:21:52.114Z,100155.84
2019-05-17T08:24:19.646Z,100155.84
2019-05-17T08:26:45.751Z,100149.80
2019-05-17T08:29:11.896Z,100149.93
2019-05-17T08:31:40.348Z,100149.93
2019-05-17T08:34:06.462Z,100153.36
2019-05-17T08:36:33.791Z,100155.57
2019-05-17T08:39:00.871Z,100154.66
2019-05-17T08:41:30.699Z,100163.15
2019-05-17T08:43:55.315Z,100157.98
2019-05-17T08:46:21.587Z,100160.36
2019-05-17T08:48:49.484Z,100154.66
2019-05-17T08:51:15.756Z,100151.74
2019-05-17T08:53:42.042Z,100152.25
2019-05-17T08:56:09.940Z,100154.42
2019-05-17T08:58:36.324Z,100139.94
2019-05-17T09:01:02.751Z,100139.94
2019-05-17T09:03:30.435Z,100146.48
2019-05-17T09:05:56.683Z,100142.27
2019-05-17T09:08:22.946Z,100134.12
2019-05-17T09:10:50.462Z,100137.74
2019-05-17T09:13:19.378Z,100139.12
2019-05-17T09:15:45.098Z,100140.73
2019-05-17T09:18:11.368Z,100140.73
2019-05-17T09:20:40.234Z,100136.55
2019-05-17T09:23:05.864Z,100136.58
2019-05-17T09:25:32.262Z,100138.92
2019-05-17T09:28:00.689Z,100129.95
2019-05-17T09:30:27.234Z,100135.31
2019-05-17T09:32:53.752Z,100130.30
2019-05-17T09:35:20.791Z,100131.33
2019-05-17T09:37:49.726Z,100129.43
2019-05-17T09:40:15.674Z,100126.82
2019-05-17T09:42:42.242Z,100126.82
2019-05-17T09:45:09.678Z,100120.77
2019-05-17T09:47:36.224Z,100121.51
2019-05-17T09:50:05.005Z,100116.48
2019-05-17T09:52:31.135Z,100116.48
2019-05-17T09:54:57.291Z,100116.29
2019-05-17T09:57:23.398Z,100105.95
2019-05-17T09:59:49.734Z,100114.28
2019-05-17T10:02:16.066Z,100114.90
2019-05-17T10:04:42.288Z,100116.76
2019-05-17T10:07:10.129Z,100114.38
2019-05-17T10:09:36.592Z,100114.61
2019-05-17T10:12:02.963Z,100110.83
2019-05-17T10:14:31.369Z,100107.30
2019-05-17T10:16:57.393Z,100095.98
2019-05-17T10:19:23.732Z,100101.40
2019-05-17T10:21:49.961Z,100105.77
2019-05-17T10:24:16.214Z,100105.88
2019-05-17T10:26:42.330Z,100105.70
2019-05-17T10:29:09.996Z,100100.58
2019-05-17T10:31:36.337Z,100097.58
2019-05-17T10:34:02.889Z,100091.85
2019-05-17T10:36:30.111Z,100094.46
2019-05-17T10:38:56.513Z,100095.34
2019-05-17T10:41:22.893Z,100096.33
2019-05-17T10:43:50.052Z,100094.70
2019-05-17T10:46:20.365Z,100086.48
2019-05-17T10:48:49.895Z,100087.03
2019-05-17T10:51:15.596Z,100085.48
2019-05-17T10:53:42.051Z,100088.04
2019-05-17T10:56:10.026Z,100086.42
2019-05-17T10:58:36.310Z,100093.31
2019-05-17T11:01:02.748Z,100085.81
2019-05-17T11:03:29.688Z,100093.95
2019-05-17T11:05:56.231Z,100099.15
2019-05-17T11:08:22.361Z,100098.23
2019-05-17T11:10:50.155Z,100097.75
2019-05-17T11:13:16.725Z,100091.34
2019-05-17T11:15:43.063Z,100088.34
2019-05-17T11:18:09.383Z,100084.92
2019-05-17T11:20:35.747Z,100085.83
2019-05-17T11:23:02.115Z,100090.24
2019-05-17T11:25:28.223Z,100089.61
2019-05-17T11:27:54.612Z,100085.95
2019-05-17T11:30:20.973Z,100083.34
2019-05-17T11:32:47.335Z,100085.99
2019-05-17T11:35:13.721Z,100083.38
2019-05-17T11:37:39.859Z,100079.18
2019-05-17T11:40:08.324Z,100080.14
2019-05-17T11:42:34.616Z,100082.45
2019-05-17T11:45:00.835Z,100074.29
2019-05-17T11:47:27.152Z,100072.63
2019-05-17T11:49:53.597Z,100074.64
2019-05-17T11:52:19.892Z,100061.16
2019-05-17T11:54:46.022Z,100064.23
2019-05-17T11:57:12.511Z,100064.66
2019-05-17T11:59:38.983Z,100061.16
2019-05-17T12:02:05.311Z,100056.75
2019-05-17T12:04:31.562Z,100055.25
2019-05-17T12:06:57.786Z,100056.02
2019-05-17T12:09:36.410Z,100052.67
2019-05-17T12:11:52.268Z,100050.31
2019-05-17T12:14:18.500Z,100048.27
2019-05-17T12:16:44.773Z,100047.44
2019-05-17T12:19:10.962Z,100047.30
2019-05-17T12:21:37.253Z,100046.53
2019-05-17T12:24:04.717Z,100056.16
2019-05-17T12:26:31.083Z,100045.11
2019-05-17T12:28:57.273Z,100050.81
2019-05-17T12:31:23.570Z,100043.84
2019-05-17T12:33:49.854Z,100038.06
2019-05-17T12:36:16.098Z,100053.02
2019-05-17T12:38:42.381Z,100043.80
2019-05-17T12:41:08.752Z,100048.36
2019-05-17T12:43:34.898Z,100043.89
2019-05-17T12:46:01.890Z,100043.50
2019-05-17T12:48:28.182Z,100041.39
2019-05-17T12:50:54.641Z,100038.62
2019-05-17T12:53:20.916Z,100035.86
2019-05-17T12:55:47.178Z,100040.34
2019-05-17T12:58:13.524Z,100032.45
2019-05-17T13:00:39.734Z,100036.44
2019-05-17T13:03:06.007Z,100036.06
2019-05-17T13:05:32.346Z,100032.15
2019-05-17T13:07:58.465Z,100034.67
2019-05-17T13:10:24.831Z,100034.98
2019-05-17T13:12:51.038Z,100030.66
2019-05-17T13:15:17.378Z,100032.95
2019-05-17T13:17:43.611Z,100030.03
2019-05-17T13:20:10.434Z,100031.79
2019-05-17T13:22:36.800Z,100032.28
2019-05-17T13:25:05.169Z,100033.58
2019-05-17T13:27:31.365Z,100028.28
2019-05-17T13:29:57.693Z,100030.36
2019-05-17T13:32:23.965Z,100028.19
2019-05-17T13:34:50.380Z,100022.96
2019-05-17T13:37:16.511Z,100021.23
2019-05-17T13:39:42.684Z,100020.80
2019-05-17T13:42:09.100Z,100022.51
2019-05-17T13:44:35.247Z,100022.89
2019-05-17T13:47:01.679Z,100020.98
2019-05-17T13:49:28.144Z,100021.46
2019-05-17T13:51:54.269Z,100015.81
2019-05-17T13:54:20.618Z,100011.51
2019-05-17T13:56:46.713Z,100018.46
2019-05-17T13:59:13.098Z,100011.42
2019-05-17T14:01:39.400Z,100013.73
2019-05-17T14:04:05.927Z,100008.00
2019-05-17T14:06:32.207Z,100002.75
2019-05-17T14:08:58.340Z,100004.06
2019-05-17T14:11:24.650Z,100010.46
2019-05-17T14:13:50.915Z,100001.55
2019-05-17T14:16:17.299Z,100010.58
2019-05-17T14:18:43.744Z,100014.18
2019-05-17T14:21:10.149Z,100012.05
2019-05-17T14:23:36.576Z,100007.57
2019-05-17T14:26:03.155Z,100005.83
2019-05-17T14:28:29.677Z,100001.38
2019-05-17T14:30:55.999Z,100004.44
2019-05-17T14:33:23.423Z,100000.48
2019-05-17T14:35:49.637Z,100004.80
2019-05-17T14:38:15.787Z,99999.98
2019-05-17T14:43:10.604Z,100000.97
2019-05-17T14:45:36.778Z,99994.78
2019-05-17T14:48:03.189Z,99996.56
2019-05-17T14:50:29.473Z,99988.92
2019-05-17T14:52:55.810Z,99995.38
2019-05-17T14:55:22.237Z,99990.09
2019-05-17T14:57:48.388Z,99994.41
2019-05-17T15:00:16.539Z,99990.59
2019-05-17T15:02:42.777Z,99986.69
2019-05-17T15:05:09.329Z,99991.97
2019-05-17T15:07:35.501Z,99992.81
2019-05-17T15:10:03.694Z,99995.73
2019-05-17T15:12:30.038Z,99991.30
2019-05-17T15:14:56.176Z,99986.36
2019-05-17T15:17:22.410Z,99987.02
2019-05-17T15:19:51.293Z,99981.34
2019-05-17T15:22:16.840Z,99983.07
2019-05-17T15:24:43.160Z,99977.30
2019-05-17T15:27:09.478Z,99969.03
2019-05-17T15:29:35.602Z,99972.52
2019-05-17T15:32:01.828Z,99982.14
2019-05-17T15:34:28.160Z,99973.42
2019-05-17T15:36:54.317Z,99973.39
2019-05-17T15:39:20.678Z,99969.79
2019-05-17T15:41:46.991Z,99971.59
2019-05-17T15:44:13.339Z,99972.91
2019-05-17T15:46:39.686Z,99969.10
2019-05-17T15:49:06.063Z,99967.99
2019-05-17T15:51:32.494Z,99966.04
2019-05-17T15:53:58.757Z,99964.27
2019-05-17T15:56:25.470Z,99969.94
2019-05-17T15:58:51.766Z,99963.28
2019-05-17T16:01:18.136Z,99959.95
2019-05-17T16:03:44.474Z,99959.55
2019-05-17T16:06:10.928Z,99954.84
2019-05-17T16:08:37.382Z,99953.83
2019-05-17T16:11:03.747Z,99942.37
2019-05-17T16:13:33.731Z,99950.54
2019-05-17T16:15:59.128Z,99947.33
2019-05-17T16:18:25.370Z,99945.41
2019-05-17T16:20:51.441Z,99943.15
2019-05-17T16:23:17.787Z,99937.20
2019-05-17T16:25:44.047Z,99938.02
2019-05-17T16:28:10.285Z,99942.91
2019-05-17T16:30:36.582Z,99938.92
2019-05-17T16:33:02.931Z,99937.39
2019-05-17T16:35:29.363Z,99940.88
2019-05-17T16:37:55.591Z,99940.47
2019-05-17T16:40:21.862Z,99932.55
2019-05-17T16:42:48.044Z,99931.83
2019-05-17T16:45:17.302Z,99933.97
2019-05-17T16:47:43.728Z,99937.16
2019-05-17T16:50:10.303Z,99936.70
2019-05-17T16:52:36.843Z,99934.42
2019-05-17T16:55:07.066Z,99942.86
2019-05-17T16:57:33.439Z,99938.53
2019-05-17T16:59:59.839Z,99937.70
2019-05-17T17:02:26.194Z,99934.78
2019-05-17T17:04:52.561Z,99936.52
2019-05-17T17:07:19.080Z,99936.16
2019-05-17T17:09:45.384Z,99940.06
2019-05-17T17:12:11.597Z,99931.73
2019-05-17T17:14:37.980Z,99938.24
2019-05-17T17:17:10.288Z,99931.34
2019-05-17T17:19:32.739Z,99930.81
2019-05-17T17:21:59.013Z,99930.81
2019-05-17T17:24:25.344Z,99936.48
2019-05-17T17:26:51.595Z,99933.50
2019-05-17T17:29:18.073Z,99932.71
2019-05-17T17:31:45.319Z,99928.30
2019-05-17T17:34:11.619Z,99936.17
2019-05-17T17:36:37.863Z,99935.67
2019-05-17T17:39:05.254Z,99934.30
2019-05-17T17:41:31.592Z,99931.27
2019-05-17T17:43:59.184Z,99938.30
2019-05-17T17:46:25.813Z,99930.00
2019-05-17T17:48:52.136Z,99930.00
2019-05-17T17:51:18.251Z,99932.69
2019-05-17T17:53:44.529Z,99930.89
2019-05-17T17:56:13.557Z,99930.05
2019-05-17T17:58:39.201Z,99934.47
2019-05-17T18:01:05.613Z,99937.05
2019-05-17T18:03:31.949Z,99937.41
2019-05-17T18:05:59.180Z,99927.38
2019-05-17T18:08:25.406Z,99926.57
2019-05-17T18:10:51.766Z,99932.32
2019-05-17T18:13:18.079Z,99931.00
2019-05-17T18:15:44.775Z,99936.26
2019-05-17T18:18:11.288Z,99929.74
2019-05-17T18:20:37.639Z,99931.92
2019-05-17T18:23:04.423Z,99932.80
2019-05-17T18:25:30.867Z,99930.19
2019-05-17T18:27:57.230Z,99935.41
2019-05-17T18:30:23.441Z,99931.48
2019-05-17T18:32:49.898Z,99939.00
2019-05-17T18:35:16.226Z,99931.11
2019-05-17T18:37:42.756Z,99935.98
2019-05-17T18:40:09.121Z,99930.30
2019-05-17T18:42:35.456Z,99934.68
2019-05-17T18:45:02.316Z,99935.98
2019-05-17T18:47:28.736Z,99939.10
2019-05-17T18:49:54.925Z,99938.23
2019-05-17T18:52:21.148Z,99944.34
2019-05-17T18:54:47.264Z,99939.13
2019-05-17T18:57:13.681Z,99940.87
2019-05-17T18:59:39.898Z,99934.73
2019-05-17T19:02:09.000Z,99942.17
2019-05-17T19:04:35.320Z,99940.44
2019-05-17T19:07:01.739Z,99940.92
2019-05-17T19:09:28.251Z,99942.69
2019-05-17T19:11:54.629Z,99944.45
2019-05-17T19:14:20.944Z,99944.45
2019-05-17T19:16:47.346Z,99941.86
2019-05-17T19:19:13.509Z,99947.08
2019-05-17T19:21:39.951Z,99941.89
2019-05-17T19:24:06.402Z,99939.23
2019-05-17T19:26:32.619Z,99940.58
2019-05-17T19:28:58.769Z,99945.39
2019-05-17T19:31:25.106Z,99952.36
2019-05-17T19:33:51.578Z,99950.66
2019-05-17T19:36:18.225Z,99948.04
2019-05-17T19:38:47.524Z,99955.00
2019-05-17T19:41:13.996Z,99951.97
2019-05-17T19:43:40.163Z,99953.73
2019-05-17T19:46:06.658Z,99955.06
2019-05-17T19:48:33.121Z,99951.54
2019-05-17T19:50:59.577Z,99960.71
2019-05-17T19:53:27.018Z,99961.59
2019-05-17T19:55:54.619Z,99956.80
2019-05-17T19:58:21.006Z,99963.81
2019-05-17T20:00:47.343Z,99965.12
2019-05-17T20:03:13.842Z,99969.91
2019-05-17T20:05:40.291Z,99965.11
2019-05-17T20:08:06.811Z,99967.75
2019-05-17T20:10:33.247Z,99970.80
2019-05-17T20:12:59.697Z,99967.73
2019-05-17T20:15:34.065Z,99968.63
2019-05-17T20:17:54.684Z,99963.81
2019-05-17T20:20:21.103Z,99962.08
2019-05-17T20:22:47.407Z,99962.94
2019-05-17T20:25:14.352Z,99959.02
2019-05-17T20:27:40.780Z,99955.95
2019-05-17T20:30:07.874Z,99948.98
2019-05-17T20:32:34.354Z,99950.28
2019-05-17T20:35:02.860Z,99958.56
2019-05-17T20:37:29.303Z,99956.83
2019-05-17T20:39:55.437Z,99954.21
2019-05-17T20:42:21.769Z,99948.55
2019-05-17T20:44:48.145Z,99946.80
2019-05-17T20:47:14.350Z,99949.86
2019-05-17T20:49:40.625Z,99954.20
2019-05-17T20:52:06.742Z,99948.98
2019-05-17T20:54:32.960Z,99949.40
2019-05-17T20:56:59.268Z,99946.36
2019-05-17T20:59:25.610Z,99943.73
2019-05-17T21:01:52.974Z,99940.70
2019-05-17T21:04:19.202Z,99942.00
2019-05-17T21:06:45.536Z,99944.16
2019-05-17T21:09:11.877Z,99939.81
2019-05-17T21:11:38.144Z,99939.38
2019-05-17T21:14:04.857Z,99937.19
2019-05-17T21:16:31.222Z,99941.14
2019-05-17T21:18:58.622Z,99937.62
2019-05-17T21:21:24.933Z,99941.11
2019-05-17T21:23:51.188Z,99935.02
2019-05-17T21:26:17.452Z,99937.62
2019-05-17T21:28:47.095Z,99936.33
2019-05-17T21:31:11.939Z,99936.75
2019-05-17T21:33:38.321Z,99933.27
2019-05-17T21:36:04.546Z,99938.48
2019-05-17T21:38:30.845Z,99938.92
2019-05-17T21:40:57.087Z,99933.69
2019-05-17T21:43:23.221Z,99931.94
2019-05-17T21:46:02.674Z,99932.80
2019-05-17T21:48:17.483Z,99938.47
2019-05-17T21:50:43.788Z,99934.98
2019-05-17T21:53:09.956Z,99932.36
2019-05-17T21:55:36.088Z,99933.24
2019-05-17T21:58:02.423Z,99933.24
2019-05-17T22:00:49.624Z,99931.50
2019-05-17T22:03:15.984Z,99930.58
2019-05-17T22:05:42.145Z,99932.30
2019-05-17T22:08:08.503Z,99935.80
2019-05-17T22:10:34.601Z,99931.87
2019-05-17T22:13:00.828Z,99929.68
2019-05-17T22:15:26.942Z,99925.77
2019-05-17T22:17:53.353Z,99925.75
2019-05-17T22:20:19.586Z,99919.22
2019-05-17T22:22:45.915Z,99920.10
2019-05-17T22:25:12.256Z,99917.48
2019-05-17T22:27:38.375Z,99918.33
2019-05-17T22:30:05.543Z,99917.41
2019-05-17T22:32:31.662Z,99914.31
2019-05-17T22:34:57.802Z,99915.98
2019-05-17T22:37:23.884Z,99916.45
2019-05-17T22:39:50.127Z,99914.70
2019-05-17T22:42:16.272Z,99910.39
2019-05-17T22:44:42.688Z,99913.84
2019-05-17T22:47:09.130Z,99908.23
2019-05-17T22:49:35.520Z,99907.78
2019-05-17T22:52:01.839Z,99902.97
2019-05-17T22:54:29.159Z,99906.84
2019-05-17T22:56:55.324Z,99898.61
2019-05-17T22:59:21.493Z,99901.19
2019-05-17T23:01:47.792Z,99902.45
2019-05-17T23:04:13.926Z,99895.91
2019-05-17T23:06:40.309Z,99898.84
2019-05-17T23:09:06.645Z,99896.05
2019-05-17T23:11:32.968Z,99902.41
2019-05-17T23:13:59.247Z,99902.33
2019-05-17T23:16:25.595Z,99899.27
2019-05-17T23:19:07.669Z,99901.80
2019-05-17T23:21:34.064Z,99896.86
2019-05-17T23:24:00.244Z,99898.16
2019-05-17T23:26:26.866Z,99901.52
2019-05-17T23:28:53.311Z,99896.35
2019-05-17T23:31:19.453Z,99894.10
2019-05-17T23:33:45.759Z,99901.11
2019-05-17T23:36:11.913Z,99892.86
2019-05-17T23:38:38.118Z,99892.86
2019-05-17T23:41:04.363Z,99888.55
2019-05-17T23:43:31.613Z,99889.08
2019-05-17T23:45:57.981Z,99889.42
2019-05-17T23:48:24.188Z,99889.42
2019-05-17T23:50:50.413Z,99892.95
2019-05-17T23:53:16.688Z,99892.95
2019-05-17T23:55:42.812Z,99895.08
2019-05-17T23:58:09.289Z,99892.51
